Time;durP1;ratioP1;P1;durP2;ratioP2;P2;SDS_P1;SDS_P2;PMS_P1;PMS_P2;Temp;Humidity;BMP_temperature;BMP_pressure;BME280_temperature;BME280_humidity;BME280_pressure;Samples;Min_cycle;Max_cycle;Signal;HPM_P1;HPM_P2
2023/04/29 07:11:15;;;;;;;15.57;7.63;;;11.20;99.90;;;;;;5002958;23;20234;-75
2023/04/29 07:13:42;;;;;;;14.03;7.70;;;11.10;99.90;;;;;;4983508;28;20226;-80
2023/04/29 07:16:16;;;;;;;16.73;6.80;;;11.10;99.90;;;;;;4977617;28;20612;-82
2023/04/29 07:18:43;;;;;;;19.40;7.90;;;11.20;99.90;;;;;;4977026;28;20231;-80
2023/04/29 07:21:10;;;;;;;17.00;7.67;;;11.20;99.90;;;;;;4977158;28;20298;-81
2023/04/29 07:23:37;;;;;;;14.47;7.50;;;11.20;99.90;;;;;;4977254;28;20611;-79
2023/04/29 07:26:10;;;;;;;17.33;7.90;;;11.30;99.90;;;;;;4977150;28;20243;-77
2023/04/29 07:28:38;;;;;;;16.57;8.20;;;11.30;99.90;;;;;;4976918;28;20723;-77
2023/04/29 07:31:06;;;;;;;17.47;8.53;;;11.40;99.90;;;;;;4977259;28;20211;-80
2023/04/29 07:33:33;;;;;;;17.87;8.00;;;11.30;99.90;;;;;;4977758;28;20215;-77
2023/04/29 07:36:00;;;;;;;17.30;8.40;;;11.40;99.90;;;;;;4976761;28;20242;-77
2023/04/29 07:38:27;;;;;;;12.73;7.40;;;11.50;99.90;;;;;;4976345;28;20322;-78
2023/04/29 07:40:55;;;;;;;13.60;8.37;;;11.50;99.90;;;;;;4976993;28;20326;-78
2023/04/29 07:43:22;;;;;;;16.47;8.50;;;11.60;99.90;;;;;;4976495;28;20262;-79
2023/04/29 07:45:50;;;;;;;15.70;7.83;;;11.60;99.90;;;;;;4977241;28;20239;-79
2023/04/29 07:48:17;;;;;;;15.73;8.77;;;11.60;99.90;;;;;;4976444;28;20322;-75
2023/04/29 07:50:44;;;;;;;18.00;8.60;;;11.60;99.90;;;;;;4971637;28;20294;-76
2023/04/29 07:53:11;;;;;;;19.23;8.63;;;11.70;99.90;;;;;;4976745;28;20270;-87
2023/04/29 07:55:38;;;;;;;16.07;8.10;;;11.80;99.90;;;;;;4975637;28;20707;-80
2023/04/29 07:58:05;;;;;;;20.47;9.20;;;11.90;99.90;;;;;;4975307;28;20355;-74
2023/04/29 08:00:32;;;;;;;19.30;8.90;;;11.70;99.90;;;;;;4975682;28;20243;-79
2023/04/29 08:03:00;;;;;;;15.47;8.00;;;11.80;99.90;;;;;;4975686;28;20242;-80
2023/04/29 08:05:29;;;;;;;19.93;8.77;;;11.90;99.90;;;;;;4975250;28;20214;-77
2023/04/29 08:07:56;;;;;;;20.93;9.20;;;11.90;99.90;;;;;;4974485;28;20242;-77
2023/04/29 08:10:23;;;;;;;25.03;9.57;;;11.90;99.90;;;;;;4973940;28;20247;-78
2023/04/29 08:12:50;;;;;;;16.47;8.60;;;12.20;99.90;;;;;;4975291;28;20219;-84
2023/04/29 08:15:17;;;;;;;16.70;8.33;;;12.40;99.90;;;;;;4975610;28;20203;-88
2023/04/29 08:17:44;;;;;;;15.97;7.93;;;12.50;99.90;;;;;;4976120;28;20698;-80
2023/04/29 08:20:14;;;;;;;18.07;8.83;;;12.80;99.90;;;;;;4976414;28;20254;-82
2023/04/29 08:22:41;;;;;;;16.73;7.87;;;12.90;99.90;;;;;;4975088;28;20215;-81
2023/04/29 08:25:09;;;;;;;19.73;7.70;;;13.00;99.90;;;;;;4976049;28;20207;-84
2023/04/29 08:27:36;;;;;;;17.40;8.63;;;13.10;99.90;;;;;;4975584;28;20282;-85
2023/04/29 08:30:03;;;;;;;14.53;7.87;;;13.40;99.90;;;;;;4975107;28;20218;-78
2023/04/29 08:32:30;;;;;;;17.53;7.93;;;13.40;99.90;;;;;;4975045;28;20203;-81
2023/04/29 08:34:57;;;;;;;15.57;7.93;;;13.50;99.90;;;;;;4975052;28;20262;-77
2023/04/29 08:37:26;;;;;;;13.93;8.60;;;13.40;99.90;;;;;;4974229;28;20258;-78
2023/04/29 08:39:53;;;;;;;16.73;8.43;;;13.30;99.90;;;;;;4974482;28;20290;-75
2023/04/29 08:42:32;;;;;;;14.13;6.87;;;13.40;99.90;;;;;;4974469;28;20635;-80
2023/04/29 08:45:00;;;;;;;13.17;6.97;;;13.50;99.90;;;;;;4974606;28;20270;-75
2023/04/29 08:47:29;;;;;;;12.43;6.33;;;13.60;99.90;;;;;;4974008;28;20235;-75
2023/04/29 08:49:56;;;;;;;12.57;6.90;;;13.50;99.90;;;;;;4974291;28;20238;-74
2023/04/29 08:52:26;;;;;;;13.37;6.73;;;13.50;99.90;;;;;;4974623;28;20266;-76
2023/04/29 08:54:53;;;;;;;11.30;6.50;;;13.40;99.90;;;;;;4974473;28;20211;-80
2023/04/29 08:57:20;;;;;;;13.40;5.93;;;13.30;99.90;;;;;;4974012;28;20250;-78
2023/04/29 08:59:47;;;;;;;15.43;6.70;;;13.20;99.90;;;;;;4974419;28;20274;-77
2023/04/29 09:02:17;;;;;;;16.63;6.83;;;13.30;99.90;;;;;;4973571;28;20679;-73
2023/04/29 09:04:50;;;;;;;13.80;6.47;;;13.30;99.90;;;;;;4974003;28;20518;-74
2023/04/29 09:07:19;;;;;;;15.23;6.97;;;13.30;99.90;;;;;;4973872;28;20231;-74
2023/04/29 09:09:48;;;;;;;11.27;5.90;;;13.30;99.90;;;;;;4973311;28;20282;-71
2023/04/29 09:12:15;;;;;;;14.50;7.00;;;13.10;99.90;;;;;;4973935;28;20824;-75
2023/04/29 09:14:42;;;;;;;16.63;7.60;;;13.10;99.90;;;;;;4973746;28;20214;-74
2023/04/29 09:17:09;;;;;;;14.40;7.10;;;12.90;99.90;;;;;;4973829;28;20238;-76
2023/04/29 09:19:37;;;;;;;17.13;7.10;;;12.90;99.90;;;;;;4973959;28;20211;-77
2023/04/29 09:22:06;;;;;;;15.10;7.87;;;13.10;99.90;;;;;;4974282;28;20212;-76
2023/04/29 09:24:34;;;;;;;14.80;6.53;;;13.30;99.90;;;;;;4974885;28;20258;-71
2023/04/29 09:27:03;;;;;;;17.67;8.03;;;13.50;99.90;;;;;;4975111;28;20227;-70
2023/04/29 09:29:31;;;;;;;14.97;7.43;;;13.60;99.90;;;;;;4974856;28;20636;-70
2023/04/29 09:31:58;;;;;;;14.37;7.40;;;13.70;99.90;;;;;;4975535;28;20306;-75
2023/04/29 09:34:37;;;;;;;16.43;6.50;;;13.80;99.90;;;;;;4975279;28;20242;-71
2023/04/29 09:37:04;;;;;;;11.97;6.57;;;13.80;99.90;;;;;;4975361;28;20286;-72
2023/04/29 09:39:39;;;;;;;15.83;7.10;;;13.90;99.90;;;;;;4974664;28;20746;-72
2023/04/29 09:42:08;;;;;;;14.47;6.80;;;14.00;99.90;;;;;;4974847;28;20238;-70
2023/04/29 09:44:35;;;;;;;12.93;6.90;;;14.00;99.90;;;;;;4975114;28;20240;-70
2023/04/29 09:47:04;;;;;;;13.13;6.60;;;14.10;99.90;;;;;;4974905;28;20707;-72
2023/04/29 09:49:34;;;;;;;12.47;6.00;;;14.30;99.90;;;;;;4974826;28;20329;-71
2023/04/29 09:52:03;;;;;;;15.73;7.50;;;14.30;99.90;;;;;;4974797;28;20211;-70
2023/04/29 09:54:32;;;;;;;12.63;6.77;;;14.40;99.90;;;;;;4974581;28;20571;-71
2023/04/29 09:57:01;;;;;;;13.67;6.70;;;14.70;99.90;;;;;;4974455;28;20715;-71
2023/04/29 09:59:29;;;;;;;12.37;7.10;;;14.80;99.90;;;;;;4974950;28;20246;-71
2023/04/29 10:01:57;;;;;;;12.53;7.10;;;15.00;99.90;;;;;;4974935;28;20238;-70
2023/04/29 10:04:26;;;;;;;11.07;6.70;;;15.50;99.90;;;;;;4974403;28;20623;-76
2023/04/29 10:06:54;;;;;;;14.20;6.83;;;15.90;99.90;;;;;;4974199;28;20566;-70
2023/04/29 10:09:23;;;;;;;12.03;6.00;;;16.20;99.90;;;;;;4974027;28;20326;-72
2023/04/29 10:11:51;;;;;;;13.97;7.07;;;16.40;99.90;;;;;;4973973;28;20250;-71
2023/04/29 10:14:19;;;;;;;12.50;6.17;;;16.60;99.90;;;;;;4974212;28;20230;-70
2023/04/29 10:16:49;;;;;;;12.70;6.73;;;16.60;99.90;;;;;;4974168;28;20303;-71
2023/04/29 10:19:25;;;;;;;12.10;6.93;;;16.70;99.90;;;;;;4974316;28;20258;-75
2023/04/29 10:21:55;;;;;;;11.20;7.07;;;16.80;99.90;;;;;;4974266;28;20215;-70
2023/04/29 10:24:23;;;;;;;15.43;7.27;;;16.60;99.90;;;;;;4974368;28;20203;-70
2023/04/29 10:26:51;;;;;;;10.40;6.60;;;16.60;99.90;;;;;;4974274;28;20218;-71
2023/04/29 10:29:19;;;;;;;9.90;6.40;;;16.20;99.90;;;;;;4974340;28;20277;-71
2023/04/29 10:31:50;;;;;;;11.83;6.80;;;16.30;99.90;;;;;;4974154;28;20286;-71
2023/04/29 10:34:18;;;;;;;11.63;6.17;;;16.30;99.90;;;;;;4973886;28;20686;-70
2023/04/29 10:36:46;;;;;;;9.67;5.97;;;16.50;99.90;;;;;;4974343;28;20215;-75
2023/04/29 10:39:21;;;;;;;12.00;5.77;;;16.50;99.90;;;;;;4974469;28;20234;-76
2023/04/29 10:41:50;;;;;;;9.17;5.63;;;16.10;99.90;;;;;;4974056;28;20210;-74
2023/04/29 10:44:17;;;;;;;11.47;5.97;;;16.00;99.90;;;;;;4973735;28;20299;-71
2023/04/29 10:46:44;;;;;;;10.73;5.90;;;15.90;99.90;;;;;;4973527;28;20298;-73
2023/04/29 10:49:12;;;;;;;12.20;5.37;;;15.80;99.90;;;;;;4973890;28;20321;-73
2023/04/29 10:51:44;;;;;;;9.80;5.63;;;15.90;99.90;;;;;;4973962;28;20207;-74
2023/04/29 10:54:14;;;;;;;9.00;5.47;;;16.10;99.90;;;;;;4974482;28;20555;-70
2023/04/29 10:56:44;;;;;;;11.57;5.57;;;16.40;99.90;;;;;;4968261;28;20306;-73
2023/04/29 10:59:13;;;;;;;9.57;6.03;;;16.40;99.90;;;;;;4965945;28;20211;-68
2023/04/29 11:01:48;;;;;;;11.10;6.03;;;16.50;99.90;;;;;;4973750;28;20214;-74
2023/04/29 11:04:17;;;;;;;8.53;5.60;;;16.50;99.90;;;;;;4954628;29;20239;-70
2023/04/29 11:06:51;;;;;;;11.10;5.80;;;16.40;99.90;;;;;;4959171;28;20578;-71
2023/04/29 11:09:25;;;;;;;9.80;5.40;;;16.30;99.90;;;;;;4970713;28;20237;-72
2023/04/29 11:12:01;;;;;;;10.57;6.60;;;15.80;99.90;;;;;;4973184;28;20235;-71
2023/04/29 11:14:31;;;;;;;8.27;5.40;;;15.90;99.90;;;;;;4973251;28;20762;-71
2023/04/29 11:16:59;;;;;;;11.87;5.63;;;16.10;99.90;;;;;;4972981;28;20262;-73
2023/04/29 11:19:32;;;;;;;10.30;5.17;;;16.20;99.90;;;;;;4973486;28;20239;-72
2023/04/29 11:22:26;;;;;;;10.37;4.93;;;16.20;99.90;;;;;;4973396;28;20207;-72
2023/04/29 11:24:55;;;;;;;9.43;5.33;;;16.20;99.90;;;;;;4971116;28;20243;-71
2023/04/29 11:27:25;;;;;;;10.33;5.40;;;15.90;99.90;;;;;;4972938;28;20231;-72
2023/04/29 11:29:57;;;;;;;8.17;4.97;;;15.90;99.90;;;;;;4973206;28;20345;-72
2023/04/29 11:32:24;;;;;;;11.03;5.30;;;16.10;99.90;;;;;;4973449;28;20218;-71
2023/04/29 11:34:52;;;;;;;9.97;4.77;;;16.50;99.90;;;;;;4973625;28;20616;-72
2023/04/29 11:37:21;;;;;;;8.97;5.00;;;16.80;99.90;;;;;;4973255;28;20314;-74
2023/04/29 11:39:49;;;;;;;8.23;5.00;;;17.20;99.90;;;;;;4973585;28;20222;-72
2023/04/29 11:42:20;;;;;;;12.70;5.37;;;17.60;99.90;;;;;;4973024;28;20239;-72
2023/04/29 11:44:47;;;;;;;9.00;5.00;;;17.80;99.90;;;;;;4973226;28;20203;-72
2023/04/29 11:47:14;;;;;;;7.33;4.80;;;18.10;99.90;;;;;;4975832;28;20258;-73
2023/04/29 11:49:41;;;;;;;11.32;5.38;;;18.20;99.90;;;;;;4976916;28;20270;-72
2023/04/29 11:52:10;;;;;;;6.55;4.53;;;18.40;99.90;;;;;;4976631;28;20203;-79
2023/04/29 11:54:37;;;;;;;6.85;4.53;;;17.70;99.90;;;;;;4976812;28;20235;-71
2023/04/29 11:57:04;;;;;;;7.13;4.10;;;17.70;99.90;;;;;;4976512;28;20271;-71
2023/04/29 11:59:32;;;;;;;5.47;3.80;;;17.90;99.90;;;;;;4976378;28;20294;-74
2023/04/29 12:02:00;;;;;;;5.83;3.30;;;17.90;99.90;;;;;;4976784;28;20195;-71
2023/04/29 12:04:27;;;;;;;5.47;3.40;;;17.80;99.90;;;;;;4976309;28;20207;-73
2023/04/29 12:06:56;;;;;;;5.57;3.47;;;17.40;99.90;;;;;;4976034;28;20302;-71
2023/04/29 12:09:25;;;;;;;6.33;3.90;;;17.40;99.90;;;;;;4976614;28;20266;-75
2023/04/29 12:11:53;;;;;;;6.37;3.83;;;17.40;99.90;;;;;;4976074;28;20254;-78
2023/04/29 12:14:20;;;;;;;6.17;3.60;;;17.70;99.90;;;;;;4976244;28;20294;-71
2023/04/29 12:16:47;;;;;;;7.05;3.95;;;18.00;99.90;;;;;;4976350;28;20306;-72
2023/04/29 12:19:14;;;;;;;7.97;3.55;;;18.20;99.90;;;;;;4976158;28;20741;-72
2023/04/29 12:21:49;;;;;;;6.65;3.70;;;17.90;99.90;;;;;;4976334;28;20211;-73
2023/04/29 12:24:16;;;;;;;6.32;3.50;;;17.80;99.90;;;;;;4976316;28;20310;-71
2023/04/29 12:26:46;;;;;;;6.85;4.13;;;17.90;99.90;;;;;;4975950;28;20210;-74
2023/04/29 12:29:14;;;;;;;7.25;4.25;;;18.00;99.90;;;;;;4975857;28;20255;-72
2023/04/29 12:31:42;;;;;;;8.50;4.37;;;18.00;99.90;;;;;;4976323;28;20298;-73
2023/04/29 12:34:09;;;;;;;6.27;3.90;;;17.80;99.90;;;;;;4976270;28;20647;-72
2023/04/29 12:36:36;;;;;;;7.30;4.03;;;17.70;99.90;;;;;;4976267;28;20326;-72
2023/04/29 12:39:09;;;;;;;5.73;3.50;;;17.40;99.90;;;;;;4975840;28;20672;-73
2023/04/29 12:41:39;;;;;;;6.80;3.73;;;17.30;99.90;;;;;;4976484;28;20258;-72
2023/04/29 12:44:09;;;;;;;5.23;3.77;;;16.80;99.90;;;;;;4976116;28;20668;-74
2023/04/29 12:46:37;;;;;;;5.90;3.90;;;16.40;99.90;;;;;;4975909;28;20675;-74
2023/04/29 12:49:04;;;;;;;5.57;3.67;;;16.50;99.90;;;;;;4975914;28;20235;-73
2023/04/29 12:51:32;;;;;;;5.87;3.53;;;16.30;99.90;;;;;;4975837;28;20214;-74
2023/04/29 12:54:00;;;;;;;5.90;3.47;;;16.30;99.90;;;;;;4975931;28;20266;-71
2023/04/29 12:56:27;;;;;;;7.53;4.07;;;16.30;99.90;;;;;;4975512;28;20211;-72
2023/04/29 12:58:53;;;;;;;5.63;3.60;;;16.60;99.90;;;;;;4975634;28;20318;-74
2023/04/29 13:01:22;;;;;;;6.43;3.87;;;17.00;99.90;;;;;;4975841;28;20640;-71
2023/04/29 13:03:50;;;;;;;6.67;4.17;;;17.20;99.90;;;;;;4975694;28;20214;-72
2023/04/29 13:06:17;;;;;;;7.30;4.50;;;17.30;99.90;;;;;;4975818;28;20702;-72
2023/04/29 13:08:44;;;;;;;6.97;4.17;;;17.80;99.90;;;;;;4976427;28;20235;-73
2023/04/29 13:11:12;;;;;;;6.38;3.85;;;18.00;99.90;;;;;;4975250;28;20309;-72
2023/04/29 13:13:39;;;;;;;6.13;3.70;;;18.40;99.90;;;;;;4975609;28;20266;-73
2023/04/29 13:16:07;;;;;;;6.63;4.03;;;18.60;99.90;;;;;;4975770;28;20214;-84
2023/04/29 13:18:35;;;;;;;6.70;4.03;;;18.60;99.90;;;;;;4975672;28;20266;-74
2023/04/29 13:21:02;;;;;;;5.22;3.78;;;18.60;99.90;;;;;;4975871;28;20312;-73
2023/04/29 13:23:29;;;;;;;6.40;3.67;;;18.60;99.90;;;;;;4975969;28;20298;-72
2023/04/29 13:25:56;;;;;;;5.20;3.63;;;18.60;99.90;;;;;;4975382;28;20219;-74
2023/04/29 13:28:23;;;;;;;5.88;3.90;;;18.50;99.90;;;;;;4974914;28;20271;-73
2023/04/29 13:30:51;;;;;;;6.18;4.10;;;18.60;99.90;;;;;;4975408;28;20329;-73
2023/04/29 13:33:18;;;;;;;5.22;3.45;;;18.70;99.90;;;;;;4975458;28;20207;-76
2023/04/29 13:35:48;;;;;;;7.93;3.92;;;18.20;99.90;;;;;;4975494;28;20302;-77
2023/04/29 13:38:16;;;;;;;6.25;3.70;;;18.10;99.90;;;;;;4975094;28;20232;-78
2023/04/29 13:40:43;;;;;;;5.33;3.60;;;17.70;99.90;;;;;;4975006;28;20234;-71
2023/04/29 13:43:10;;;;;;;5.70;3.33;;;17.60;99.90;;;;;;4974842;28;20246;-76
2023/04/29 13:45:37;;;;;;;5.75;4.10;;;17.70;99.90;;;;;;4975127;28;20293;-71
2023/04/29 13:48:04;;;;;;;8.30;3.80;;;17.50;99.90;;;;;;4974910;28;20310;-72
2023/04/29 13:50:31;;;;;;;6.57;3.67;;;17.40;99.90;;;;;;4975059;28;20289;-80
2023/04/29 13:52:59;;;;;;;5.73;3.73;;;17.50;99.90;;;;;;4974618;28;20294;-73
2023/04/29 13:55:27;;;;;;;4.87;3.10;;;17.40;99.90;;;;;;4974861;28;20208;-72
2023/04/29 13:57:54;;;;;;;8.50;3.70;;;17.30;99.90;;;;;;4974451;28;20231;-71
2023/04/29 14:00:21;;;;;;;6.13;3.60;;;17.50;99.90;;;;;;4974599;28;20623;-72
2023/04/29 14:02:47;;;;;;;7.13;3.90;;;17.60;99.90;;;;;;4974847;28;20290;-73
2023/04/29 14:05:15;;;;;;;6.97;3.70;;;17.60;99.90;;;;;;4974434;28;20294;-71
2023/04/29 14:07:41;;;;;;;5.90;3.45;;;17.40;99.90;;;;;;4974100;28;20235;-73
2023/04/29 14:10:10;;;;;;;6.23;3.30;;;17.00;99.90;;;;;;4973975;28;20327;-72
2023/04/29 14:12:37;;;;;;;8.60;3.87;;;17.00;99.90;;;;;;4974376;28;20314;-73
2023/04/29 14:15:05;;;;;;;5.37;4.00;;;17.10;99.90;;;;;;4974367;28;20631;-71
2023/04/29 14:17:31;;;;;;;5.47;3.67;;;17.00;99.90;;;;;;4974017;28;20696;-72
2023/04/29 14:19:58;;;;;;;8.00;3.33;;;16.80;99.90;;;;;;4974493;28;20289;-73
2023/04/29 14:22:26;;;;;;;7.37;4.33;;;16.60;99.90;;;;;;4974095;28;20246;-71
2023/04/29 14:24:53;;;;;;;6.20;3.70;;;16.40;99.90;;;;;;4974261;28;20211;-74
2023/04/29 14:27:22;;;;;;;5.60;3.60;;;16.40;99.90;;;;;;4973972;28;20318;-73
2023/04/29 14:29:48;;;;;;;6.03;3.93;;;16.60;99.90;;;;;;4974179;28;20708;-79
2023/04/29 14:32:15;;;;;;;5.87;3.80;;;17.00;99.90;;;;;;4974359;28;20322;-74
2023/04/29 14:34:42;;;;;;;7.07;4.37;;;17.00;99.90;;;;;;4974223;28;20294;-72
2023/04/29 14:37:09;;;;;;;7.87;4.40;;;17.10;99.90;;;;;;4974323;28;20325;-71
2023/04/29 14:39:36;;;;;;;5.90;3.83;;;17.30;99.90;;;;;;4974566;28;20239;-73
2023/04/29 14:42:03;;;;;;;6.60;4.20;;;17.40;99.90;;;;;;4974145;28;20294;-71
2023/04/29 14:44:31;;;;;;;5.35;3.70;;;17.30;99.90;;;;;;4974588;28;20298;-75
2023/04/29 14:46:58;;;;;;;6.07;4.03;;;17.40;99.90;;;;;;4974282;28;20658;-71
2023/04/29 14:49:25;;;;;;;6.97;3.92;;;17.50;99.90;;;;;;4974264;28;20235;-71
2023/04/29 14:51:52;;;;;;;6.43;4.53;;;17.70;99.90;;;;;;4974077;28;20301;-73
2023/04/29 14:54:18;;;;;;;7.32;3.78;;;17.70;99.90;;;;;;4974307;28;20214;-72
2023/04/29 14:56:45;;;;;;;5.20;3.53;;;18.00;99.90;;;;;;4970088;28;20238;-71
2023/04/29 14:59:12;;;;;;;6.97;3.63;;;18.10;99.90;;;;;;4955972;28;20653;-71
2023/04/29 15:01:41;;;;;;;5.93;3.58;;;18.00;99.90;;;;;;4973179;28;20203;-72
2023/04/29 15:04:07;;;;;;;7.35;4.30;;;18.10;99.90;;;;;;4973082;28;20702;-70
2023/04/29 15:06:39;;;;;;;6.35;3.90;;;17.90;99.90;;;;;;4972962;28;20211;-75
2023/04/29 15:09:06;;;;;;;4.85;3.72;;;18.10;99.90;;;;;;4972978;28;20215;-72
2023/04/29 15:11:33;;;;;;;8.50;3.75;;;18.30;99.90;;;;;;4972626;28;20221;-71
2023/04/29 15:14:00;;;;;;;8.10;4.10;;;18.30;99.90;;;;;;4973215;28;20306;-75
2023/04/29 15:16:27;;;;;;;6.40;3.78;;;18.00;99.90;;;;;;4973595;28;20239;-74
2023/04/29 15:18:55;;;;;;;7.22;3.75;;;17.50;99.90;;;;;;4973779;28;20313;-75
2023/04/29 15:21:22;;;;;;;4.60;3.03;;;17.40;99.90;;;;;;4977108;28;20215;-75
2023/04/29 15:23:49;;;;;;;6.32;3.53;;;17.50;99.90;;;;;;4977012;28;20298;-70
2023/04/29 15:26:16;;;;;;;7.07;4.07;;;17.60;99.90;;;;;;4977143;28;20203;-72
2023/04/29 15:28:44;;;;;;;7.18;3.50;;;17.90;99.90;;;;;;4976915;28;20266;-71
2023/04/29 15:31:11;;;;;;;5.55;3.22;;;17.90;99.90;;;;;;4977496;28;20291;-71
2023/04/29 15:33:38;;;;;;;6.57;3.47;;;17.70;99.90;;;;;;4977337;28;20609;-71
2023/04/29 15:36:07;;;;;;;5.18;3.53;;;17.60;99.90;;;;;;4977436;28;20266;-71
2023/04/29 15:38:34;;;;;;;5.15;3.38;;;17.40;99.90;;;;;;4977404;28;20774;-72
2023/04/29 15:41:02;;;;;;;6.13;3.70;;;17.50;99.90;;;;;;4977232;28;20624;-71
2023/04/29 15:43:30;;;;;;;4.78;3.17;;;17.80;99.90;;;;;;4976999;28;20620;-72
2023/04/29 15:45:58;;;;;;;5.35;3.53;;;17.50;99.90;;;;;;4977179;28;20211;-72
2023/04/29 15:48:26;;;;;;;5.10;3.40;;;17.10;99.90;;;;;;4977044;28;20703;-71
2023/04/29 15:50:53;;;;;;;4.72;3.35;;;17.10;99.90;;;;;;4977364;28;20595;-71
2023/04/29 15:53:22;;;;;;;5.33;3.43;;;17.40;99.90;;;;;;4977223;28;20656;-72
2023/04/29 15:55:48;;;;;;;5.93;3.30;;;17.50;99.90;;;;;;4977491;28;20302;-72
2023/04/29 15:58:16;;;;;;;4.83;3.40;;;17.60;99.90;;;;;;4978622;28;20262;-72
2023/04/29 16:00:43;;;;;;;4.50;3.20;;;17.50;99.90;;;;;;4979030;28;20211;-72
2023/04/29 16:03:09;;;;;;;4.60;3.30;;;17.30;99.90;;;;;;4977367;28;20266;-72
2023/04/29 16:05:37;;;;;;;5.97;3.37;;;17.10;99.90;;;;;;4977094;28;21284;-75
2023/04/29 16:08:04;;;;;;;4.93;3.40;;;16.80;99.90;;;;;;4977070;28;20223;-74
2023/04/29 16:10:32;;;;;;;4.77;3.10;;;16.50;99.90;;;;;;4977223;28;20354;-75
2023/04/29 16:12:59;;;;;;;6.00;3.37;;;16.40;99.90;;;;;;4976698;28;20243;-85
2023/04/29 16:15:27;;;;;;;6.03;3.73;;;16.60;99.90;;;;;;4976990;28;20501;-75
2023/04/29 16:17:55;;;;;;;5.53;3.50;;;16.70;99.90;;;;;;4976741;28;20228;-72
2023/04/29 16:20:22;;;;;;;7.00;3.60;;;16.40;99.90;;;;;;4976828;28;20250;-77
2023/04/29 16:22:49;;;;;;;4.37;2.80;;;15.90;99.90;;;;;;4977018;28;20211;-76
2023/04/29 16:25:16;;;;;;;5.17;3.30;;;15.90;99.90;;;;;;4976913;28;20237;-74
2023/04/29 16:27:44;;;;;;;7.73;3.53;;;16.00;99.90;;;;;;4976628;28;20262;-80
2023/04/29 16:30:11;;;;;;;6.47;3.50;;;16.20;99.90;;;;;;4976410;28;20703;-77
2023/04/29 16:32:40;;;;;;;5.93;3.40;;;16.40;99.90;;;;;;4975683;28;20218;-81
2023/04/29 16:35:07;;;;;;;6.40;3.43;;;16.40;99.90;;;;;;4976682;28;20203;-82
2023/04/29 16:37:34;;;;;;;5.90;3.63;;;16.50;99.90;;;;;;4976401;28;20699;-77
2023/04/29 16:40:01;;;;;;;5.17;3.10;;;16.50;99.90;;;;;;4976046;28;20215;-73
2023/04/29 16:42:28;;;;;;;9.60;3.50;;;16.60;99.90;;;;;;4975911;28;20239;-74
2023/04/29 16:44:56;;;;;;;4.33;3.17;;;16.70;99.90;;;;;;4976275;28;20243;-74
2023/04/29 16:47:24;;;;;;;5.03;3.07;;;16.90;99.90;;;;;;4976245;28;20314;-72
2023/04/29 16:49:51;;;;;;;4.93;3.20;;;16.90;99.90;;;;;;4976302;28;20269;-74
2023/04/29 16:52:19;;;;;;;5.10;3.10;;;16.80;99.90;;;;;;4975949;28;20294;-84
2023/04/29 16:54:46;;;;;;;7.50;4.10;;;16.70;99.90;;;;;;4976121;28;20211;-82
2023/04/29 16:57:13;;;;;;;6.50;3.37;;;16.50;99.90;;;;;;4975860;28;20315;-72
2023/04/29 16:59:40;;;;;;;4.73;2.93;;;16.50;99.90;;;;;;4975676;28;20235;-72
2023/04/29 17:02:09;;;;;;;5.10;3.10;;;16.60;99.90;;;;;;4976219;28;20290;-72
2023/04/29 17:04:36;;;;;;;5.13;3.30;;;16.70;99.90;;;;;;4976010;28;20266;-72
2023/04/29 17:07:02;;;;;;;6.90;3.10;;;16.80;99.90;;;;;;4975706;28;20258;-72
2023/04/29 17:09:30;;;;;;;5.60;3.47;;;16.70;99.90;;;;;;4975469;28;20253;-75
2023/04/29 17:11:57;;;;;;;6.50;3.13;;;16.40;99.90;;;;;;4975360;28;20266;-72
2023/04/29 17:14:25;;;;;;;4.97;3.37;;;16.40;99.90;;;;;;4975774;28;20215;-72
2023/04/29 17:16:52;;;;;;;5.77;2.73;;;16.30;99.90;;;;;;4975952;28;20211;-72
2023/04/29 17:19:20;;;;;;;5.03;3.03;;;16.20;99.90;;;;;;4976099;28;20698;-73
2023/04/29 17:21:47;;;;;;;5.13;3.43;;;16.20;99.90;;;;;;4975616;28;20243;-71
2023/04/29 17:24:15;;;;;;;6.00;3.23;;;16.50;99.90;;;;;;4975353;28;20298;-72
2023/04/29 17:26:42;;;;;;;5.67;3.20;;;16.30;99.90;;;;;;4975304;28;20302;-75
2023/04/29 17:29:09;;;;;;;6.60;3.30;;;16.00;99.90;;;;;;4975576;28;20303;-73
2023/04/29 17:31:44;;;;;;;5.37;3.13;;;16.00;99.90;;;;;;4975542;28;20720;-74
2023/04/29 17:34:17;;;;;;;5.93;3.10;;;15.70;99.90;;;;;;4975477;28;20230;-74
2023/04/29 17:36:46;;;;;;;4.53;2.90;;;15.60;99.90;;;;;;4975092;28;20209;-72
2023/04/29 17:39:13;;;;;;;4.07;2.63;;;15.40;99.90;;;;;;4974824;28;20211;-72
2023/04/29 17:41:40;;;;;;;4.90;3.20;;;15.50;99.90;;;;;;4974733;28;20307;-73
2023/04/29 17:44:07;;;;;;;4.50;3.00;;;15.60;99.90;;;;;;4974473;28;20273;-72
2023/04/29 17:46:34;;;;;;;5.43;3.03;;;15.80;99.90;;;;;;4975251;28;20207;-71
2023/04/29 17:49:01;;;;;;;4.63;3.00;;;15.90;99.90;;;;;;4975227;28;20629;-72
2023/04/29 17:51:28;;;;;;;5.60;2.97;;;15.90;99.90;;;;;;4974997;28;20262;-72
2023/04/29 17:53:56;;;;;;;4.40;3.00;;;15.90;99.90;;;;;;4975102;28;20211;-71
2023/04/29 17:56:23;;;;;;;4.87;2.90;;;15.90;99.90;;;;;;4975268;28;20211;-72
2023/04/29 17:58:50;;;;;;;7.20;3.10;;;15.70;99.90;;;;;;4975056;28;20266;-73
2023/04/29 18:01:18;;;;;;;4.50;2.73;;;15.60;99.90;;;;;;4974891;28;20262;-76
2023/04/29 18:03:45;;;;;;;7.20;3.50;;;15.50;99.90;;;;;;4974702;28;20612;-80
2023/04/29 18:06:12;;;;;;;4.20;2.67;;;15.60;99.90;;;;;;4974753;28;20258;-78
2023/04/29 18:08:40;;;;;;;4.00;2.70;;;15.60;99.90;;;;;;4975806;28;20230;-71
2023/04/29 18:11:08;;;;;;;7.17;2.97;;;15.30;99.90;;;;;;4974828;28;20274;-72
2023/04/29 18:13:35;;;;;;;4.97;3.03;;;15.20;99.90;;;;;;4974515;28;20203;-72
2023/04/29 18:16:02;;;;;;;3.90;2.73;;;15.20;99.90;;;;;;4974846;28;20207;-72
2023/04/29 18:18:31;;;;;;;3.77;2.63;;;15.50;99.90;;;;;;4975081;28;20641;-72
2023/04/29 18:20:58;;;;;;;3.70;2.77;;;15.50;99.90;;;;;;4975849;28;20254;-71
2023/04/29 18:23:25;;;;;;;5.03;3.03;;;15.30;99.90;;;;;;4975292;28;20688;-73
2023/04/29 18:25:52;;;;;;;4.33;3.07;;;15.20;99.90;;;;;;4974534;28;20637;-72
2023/04/29 18:28:20;;;;;;;4.97;3.00;;;15.20;99.90;;;;;;4974427;28;20655;-72
2023/04/29 18:30:48;;;;;;;3.63;2.60;;;15.20;99.90;;;;;;4977086;28;20325;-72
2023/04/29 18:33:15;;;;;;;5.07;3.30;;;15.20;99.90;;;;;;4976559;28;20207;-73
2023/04/29 18:35:43;;;;;;;6.20;3.10;;;15.20;99.90;;;;;;4974481;28;20214;-73
2023/04/29 18:38:13;;;;;;;5.73;2.87;;;15.30;99.90;;;;;;4975083;28;20251;-84
2023/04/29 18:40:40;;;;;;;3.93;3.07;;;15.40;99.90;;;;;;4974688;28;20211;-77
2023/04/29 18:43:07;;;;;;;6.43;3.20;;;15.50;99.90;;;;;;4974239;28;20207;-73
2023/04/29 18:45:36;;;;;;;6.83;3.40;;;15.50;99.90;;;;;;4974309;28;20226;-74
2023/04/29 18:48:05;;;;;;;5.27;2.77;;;15.50;99.90;;;;;;4974228;28;20769;-73
2023/04/29 18:50:32;;;;;;;4.90;2.63;;;15.50;99.90;;;;;;4974293;28;20238;-73
2023/04/29 18:52:59;;;;;;;5.17;2.73;;;15.50;99.90;;;;;;4974419;28;20298;-76
2023/04/29 18:55:26;;;;;;;4.67;2.60;;;15.40;99.90;;;;;;4977941;28;20207;-72
2023/04/29 18:57:53;;;;;;;7.63;2.63;;;15.40;99.90;;;;;;4980030;28;20278;-72
2023/04/29 19:00:20;;;;;;;4.87;2.67;;;15.20;99.90;;;;;;4980393;28;20214;-72
2023/04/29 19:02:48;;;;;;;5.97;2.97;;;15.10;99.90;;;;;;4980602;28;20246;-75
2023/04/29 19:05:15;;;;;;;4.60;2.90;;;15.00;99.90;;;;;;4980481;28;20243;-73
2023/04/29 19:07:42;;;;;;;5.50;3.00;;;14.80;99.90;;;;;;4980539;28;20313;-72
2023/04/29 19:10:10;;;;;;;3.80;2.70;;;14.70;99.90;;;;;;4980407;28;20261;-71
2023/04/29 19:12:37;;;;;;;5.97;2.83;;;14.70;99.90;;;;;;4982073;28;20325;-70
2023/04/29 19:15:06;;;;;;;7.53;4.13;;;14.50;99.90;;;;;;4983499;28;20210;-72
2023/04/29 19:17:33;;;;;;;5.83;3.50;;;14.50;99.90;;;;;;4980712;28;20218;-71
2023/04/29 19:20:01;;;;;;;7.93;4.63;;;14.40;99.90;;;;;;4980375;28;20314;-71
2023/04/29 19:22:28;;;;;;;5.93;3.70;;;14.30;99.90;;;;;;4980413;28;20246;-71
2023/04/29 19:24:55;;;;;;;8.50;4.10;;;14.20;99.90;;;;;;4980287;28;20294;-71
2023/04/29 19:27:22;;;;;;;10.03;5.37;;;14.00;99.90;;;;;;4979936;28;20270;-72
2023/04/29 19:29:49;;;;;;;9.83;5.87;;;14.00;99.90;;;;;;4980028;28;20207;-82
2023/04/29 19:32:18;;;;;;;13.57;6.23;;;14.00;99.90;;;;;;4979774;28;20595;-71
2023/04/29 19:34:45;;;;;;;11.40;5.77;;;14.00;99.90;;;;;;4980176;28;20246;-71
2023/04/29 19:37:14;;;;;;;11.47;5.63;;;14.10;99.90;;;;;;4980110;28;20231;-74
2023/04/29 19:39:41;;;;;;;10.53;5.67;;;14.00;99.90;;;;;;4980208;28;20246;-74
2023/04/29 19:42:08;;;;;;;10.13;6.10;;;13.90;99.90;;;;;;4980049;28;20301;-72
2023/04/29 19:44:34;;;;;;;11.20;6.07;;;13.80;99.90;;;;;;4980111;28;20217;-72
2023/04/29 19:47:02;;;;;;;13.63;5.80;;;13.70;99.90;;;;;;4980011;28;20401;-71
2023/04/29 19:49:29;;;;;;;11.07;5.70;;;13.60;99.90;;;;;;4980142;28;20207;-72
2023/04/29 19:51:56;;;;;;;10.43;6.10;;;13.60;99.90;;;;;;4979722;28;20330;-72
2023/04/29 19:54:24;;;;;;;11.50;5.93;;;13.50;99.90;;;;;;4979737;28;20301;-78
2023/04/29 19:56:51;;;;;;;13.30;6.17;;;13.30;99.90;;;;;;4980113;28;20203;-75